createdAt,value
2022-08-03T00:00:10.871Z,95691.8
2022-08-03T00:01:12.822Z,95692.7
2022-08-03T00:02:15.957Z,95691.6
2022-08-03T00:03:19.088Z,95692.4
2022-08-03T00:05:27.231Z,95685.9
2022-08-03T00:07:37.733Z,95686.7
2022-08-03T00:08:41.911Z,95687.6
2022-08-03T00:09:44.142Z,95686
2022-08-03T00:10:46.367Z,95686.6
2022-08-03T00:12:53.890Z,95682.2
2022-08-03T00:13:56.114Z,95685.2
2022-08-03T00:14:58.689Z,95684.8
2022-08-03T00:16:01.143Z,95685.2
2022-08-03T00:17:03.375Z,95684
2022-08-03T00:18:05.901Z,95687
2022-08-03T00:19:08.395Z,95685.3
2022-08-03T00:20:10.619Z,95688
2022-08-03T00:21:12.825Z,95686.4
2022-08-03T00:22:19.858Z,95689.6
2022-08-03T00:23:21.798Z,95687.4
2022-08-03T00:24:24.302Z,95685.5
2022-08-03T00:25:26.260Z,95687.7
2022-08-03T00:26:28.489Z,95686.9
2022-08-03T00:28:35.707Z,95687.5
2022-08-03T00:32:55.881Z,95680.1
2022-08-03T00:36:10.892Z,95686.5
2022-08-03T00:37:13.377Z,95683.9
2022-08-03T00:38:15.013Z,95681.1
2022-08-03T00:39:17.507Z,95681.2
2022-08-03T00:40:19.734Z,95679.3
2022-08-03T00:41:21.948Z,95680.8
2022-08-03T00:43:29.437Z,95681.6
2022-08-03T00:44:31.918Z,95679.2
2022-08-03T00:45:33.816Z,95682.3
2022-08-03T00:46:36.026Z,95680.1
2022-08-03T00:47:38.209Z,95680.9
2022-08-03T00:48:40.415Z,95682.8
2022-08-03T00:49:43.168Z,95682.3
2022-08-03T00:50:45.662Z,95681.6
2022-08-03T00:51:52.601Z,95675.7
2022-08-03T00:52:55.099Z,95672.8
2022-08-03T00:53:57.293Z,95676.4
2022-08-03T00:54:58.936Z,95678.6
2022-08-03T00:56:00.859Z,95675.4
2022-08-03T00:57:02.481Z,95680.4
2022-08-03T00:58:04.947Z,95677
2022-08-03T00:59:07.505Z,95677.8
2022-08-03T01:00:09.244Z,95675.9
2022-08-03T01:01:11.809Z,95678.1
2022-08-03T01:02:14.732Z,95679.8
2022-08-03T01:03:17.641Z,95678.4
2022-08-03T01:04:20.119Z,95680.1
2022-08-03T01:05:22.595Z,95674.8
2022-08-03T01:06:24.496Z,95671.4
2022-08-03T01:07:26.980Z,95666.7
2022-08-03T01:08:29.469Z,95671.9
2022-08-03T01:09:31.685Z,95672.1
2022-08-03T01:10:33.968Z,95672.3
2022-08-03T01:12:42.134Z,95670.5
2022-08-03T01:14:49.326Z,95663.2
2022-08-03T01:15:51.803Z,95661.4
2022-08-03T01:16:53.995Z,95662.1
2022-08-03T01:17:56.495Z,95659.8
2022-08-03T01:18:58.718Z,95665.9
2022-08-03T01:20:02.896Z,95658.9
2022-08-03T01:21:06.113Z,95660.3
2022-08-03T01:22:15.311Z,95662.7
2022-08-03T01:23:18.174Z,95657.1
2022-08-03T01:24:20.364Z,95660.5
2022-08-03T01:25:22.568Z,95659.4
2022-08-03T01:26:24.768Z,95656.6
2022-08-03T01:27:27.241Z,95656.3
2022-08-03T01:28:29.718Z,95656
2022-08-03T01:29:31.372Z,95655.4
2022-08-03T01:30:33.837Z,95653.3
2022-08-03T01:33:46.303Z,95653.6
2022-08-03T01:34:48.505Z,95653.6
2022-08-03T01:35:50.724Z,95653.7
2022-08-03T01:36:52.810Z,95652.2
2022-08-03T01:37:55.114Z,95651.4
2022-08-03T01:38:57.087Z,95651.3
2022-08-03T01:39:59.359Z,95655.7
2022-08-03T01:41:01.609Z,95655.4
2022-08-03T01:42:05.427Z,95656.3
2022-08-03T01:43:07.388Z,95652.9
2022-08-03T01:45:14.604Z,95653.4
2022-08-03T01:46:17.089Z,95649
2022-08-03T01:47:19.597Z,95647.6
2022-08-03T01:48:21.825Z,95650.6
2022-08-03T01:49:24.098Z,95651.4
2022-08-03T01:50:26.050Z,95648.6
2022-08-03T01:52:32.975Z,95643.8
2022-08-03T01:53:34.893Z,95647.6
2022-08-03T01:54:37.372Z,95642.7
2022-08-03T01:55:39.926Z,95644
2022-08-03T01:56:41.563Z,95642.8
2022-08-03T01:58:48.785Z,95642.6
2022-08-03T01:59:50.697Z,95647.1
2022-08-03T02:00:53.484Z,95646.8
2022-08-03T02:03:01.073Z,95646.8
2022-08-03T02:04:03.298Z,95650
2022-08-03T02:07:48.640Z,95647.2
2022-08-03T02:08:50.013Z,95647.2
2022-08-03T02:09:52.222Z,95644.7
2022-08-03T02:10:54.714Z,95646.3
2022-08-03T02:11:57.193Z,95646.4
2022-08-03T02:12:59.695Z,95646.2
2022-08-03T02:14:01.870Z,95640.7
2022-08-03T02:15:03.819Z,95645.5
2022-08-03T02:16:06.388Z,95647.8
2022-08-03T02:17:08.602Z,95645.2
2022-08-03T02:18:11.076Z,95651.6
2022-08-03T02:19:13.293Z,95647.9
2022-08-03T02:20:15.766Z,95650.4
2022-08-03T02:22:23.240Z,95653.1
2022-08-03T02:23:25.478Z,95644.9
2022-08-03T02:24:27.961Z,95645.1
2022-08-03T02:25:30.157Z,95643.3
2022-08-03T02:26:32.379Z,95644.6
2022-08-03T02:27:34.596Z,95643.4
2022-08-03T02:28:36.849Z,95646.4
2022-08-03T02:30:46.066Z,95646.2
2022-08-03T02:31:52.565Z,95649.7
2022-08-03T02:32:55.036Z,95646.7
2022-08-03T02:33:57.237Z,95649.2
2022-08-03T02:34:59.431Z,95650
2022-08-03T02:36:01.622Z,95645.1
2022-08-03T02:37:04.109Z,95650.3
2022-08-03T02:38:06.008Z,95650
2022-08-03T02:39:08.273Z,95648.3
2022-08-03T02:40:10.758Z,95650.7
2022-08-03T02:41:13.087Z,95646.9
2022-08-03T02:42:16.565Z,95654.7
2022-08-03T02:43:23.612Z,95650.1
2022-08-03T02:44:26.086Z,95650.4
2022-08-03T02:45:28.568Z,95644.9
2022-08-03T02:46:31.245Z,95644.5
2022-08-03T02:48:38.299Z,95643.3
2022-08-03T02:50:45.794Z,95648.9
2022-08-03T02:51:47.706Z,95644.4
2022-08-03T02:52:49.902Z,95651.6
2022-08-03T02:53:52.103Z,95648.7
2022-08-03T02:54:54.041Z,95651.6
2022-08-03T02:55:56.251Z,95649.5
2022-08-03T02:56:58.771Z,95646.8
2022-08-03T02:58:02.843Z,95650.8
2022-08-03T02:59:04.782Z,95646
2022-08-03T03:00:07.283Z,95646.8
2022-08-03T03:01:09.995Z,95649.1
2022-08-03T03:02:12.139Z,95648.7
2022-08-03T03:03:15.753Z,95648.9
2022-08-03T03:08:40.518Z,95639.9
2022-08-03T03:09:44.768Z,95644
2022-08-03T03:10:47.248Z,95646.2
2022-08-03T03:11:49.721Z,95641.2
2022-08-03T03:12:52.186Z,95642
2022-08-03T03:13:54.660Z,95643
2022-08-03T03:14:57.122Z,95642.5
2022-08-03T03:15:59.329Z,95645.2
2022-08-03T03:17:00.962Z,95644.3
2022-08-03T03:18:02.860Z,95648.6
2022-08-03T03:19:05.485Z,95642.4
2022-08-03T03:20:07.665Z,95637.7
2022-08-03T03:21:09.856Z,95638.6
2022-08-03T03:22:12.047Z,95639.1
2022-08-03T03:23:14.512Z,95640.8
2022-08-03T03:24:16.992Z,95640.3
2022-08-03T03:25:18.899Z,95637.6
2022-08-03T03:26:21.095Z,95636.5
2022-08-03T03:27:24.769Z,95639.1
2022-08-03T03:28:30.949Z,95636.3
2022-08-03T03:30:37.873Z,95636.2
2022-08-03T03:31:40.325Z,95638
2022-08-03T03:32:42.249Z,95638.7
2022-08-03T03:33:44.459Z,95636.3
2022-08-03T03:34:47.431Z,95638.9
2022-08-03T03:35:49.929Z,95638.3
2022-08-03T03:36:51.822Z,95638.9
2022-08-03T03:37:54.304Z,95636.5
2022-08-03T03:38:56.193Z,95639.4
2022-08-03T03:39:59.247Z,95636.9
2022-08-03T03:41:01.729Z,95636.1
2022-08-03T03:42:04.222Z,95639.3
2022-08-03T03:43:06.134Z,95640.9
2022-08-03T03:44:08.616Z,95638.4
2022-08-03T03:45:11.093Z,95639
2022-08-03T03:46:13.577Z,95638.4
2022-08-03T03:48:23.295Z,95637.9
2022-08-03T03:49:25.862Z,95636.6
2022-08-03T03:50:28.469Z,95639.5
2022-08-03T03:51:30.965Z,95636.6
2022-08-03T03:52:32.912Z,95637.4
2022-08-03T03:53:34.839Z,95636.2
2022-08-03T03:54:37.305Z,95636.6
2022-08-03T03:56:44.508Z,95635.7
2022-08-03T03:57:46.983Z,95637.8
2022-08-03T03:58:49.450Z,95635.9
2022-08-03T03:59:51.931Z,95634.1
2022-08-03T04:00:54.619Z,95636.4
2022-08-03T04:03:02.161Z,95633.7
2022-08-03T04:04:04.368Z,95635.3
2022-08-03T04:05:06.563Z,95636.1
2022-08-03T04:06:09.042Z,95637.4
2022-08-03T04:07:11.510Z,95633.8
2022-08-03T04:08:13.726Z,95635.3
2022-08-03T04:09:15.653Z,95635.6
2022-08-03T04:10:18.129Z,95639.5
2022-08-03T04:12:26.000Z,95643.2
2022-08-03T04:13:28.199Z,95642.2
2022-08-03T04:14:30.376Z,95642.9
2022-08-03T04:15:32.004Z,95642.4
2022-08-03T04:16:34.475Z,95643.8
2022-08-03T04:17:36.952Z,95643.1
2022-08-03T04:18:39.424Z,95645.4
2022-08-03T04:19:41.901Z,95641
2022-08-03T04:21:49.790Z,95645.7
2022-08-03T04:22:51.994Z,95648.5
2022-08-03T04:23:54.458Z,95647.4
2022-08-03T04:24:56.653Z,95649.4
2022-08-03T04:25:59.134Z,95651.8
2022-08-03T04:27:01.607Z,95644.6
2022-08-03T04:29:08.497Z,95650.4
2022-08-03T04:30:10.982Z,95651.2
2022-08-03T04:31:13.195Z,95650
2022-08-03T04:32:17.177Z,95651.6
2022-08-03T04:33:20.634Z,95645.9
2022-08-03T04:34:26.813Z,95649
2022-08-03T04:36:34.004Z,95648.2
2022-08-03T04:37:35.936Z,95649.5
2022-08-03T04:38:38.106Z,95654.3
2022-08-03T04:39:40.581Z,95650.8
2022-08-03T04:40:43.050Z,95648.5
2022-08-03T04:42:49.958Z,95645.3
2022-08-03T04:43:52.159Z,95647.2
2022-08-03T04:45:59.634Z,95650.1
2022-08-03T04:47:02.115Z,95655.8
2022-08-03T04:48:04.642Z,95653
2022-08-03T04:49:06.929Z,95656.5
2022-08-03T04:51:14.189Z,95658.4
2022-08-03T04:52:18.138Z,95660
2022-08-03T04:53:20.873Z,95664.7
2022-08-03T04:54:25.220Z,95662.8
2022-08-03T04:55:27.689Z,95666
2022-08-03T04:56:29.642Z,95667.2
2022-08-03T04:57:31.834Z,95659.5
2022-08-03T04:58:33.758Z,95656.2
2022-08-03T05:00:41.222Z,95663.7
2022-08-03T05:01:44.108Z,95663.8
2022-08-03T05:02:46.461Z,95662.6
2022-08-03T05:03:48.660Z,95661.5
2022-08-03T05:04:50.850Z,95667
2022-08-03T05:09:11.287Z,95664.9
2022-08-03T05:11:20.148Z,95670.1
2022-08-03T05:12:21.779Z,95670.4
2022-08-03T05:13:24.245Z,95672.3
2022-08-03T05:15:31.728Z,95673.1
2022-08-03T05:16:34.217Z,95677
2022-08-03T05:17:36.689Z,95673.5
2022-08-03T05:18:38.887Z,95674.8
2022-08-03T05:19:41.363Z,95675.7
2022-08-03T05:20:43.843Z,95678
2022-08-03T05:22:50.771Z,95682.6
2022-08-03T05:23:53.257Z,95681.3
2022-08-03T05:24:55.434Z,95681.3
2022-08-03T05:25:57.608Z,95682.1
2022-08-03T05:27:00.085Z,95684.5
2022-08-03T05:28:02.264Z,95682.3
2022-08-03T05:29:04.732Z,95681.1
2022-08-03T05:31:12.220Z,95681.5
2022-08-03T05:32:14.165Z,95682.3
2022-08-03T05:33:16.629Z,95683.9
2022-08-03T05:34:18.812Z,95686.3
2022-08-03T05:36:26.003Z,95685.1
2022-08-03T05:37:28.214Z,95690.5
2022-08-03T05:39:36.361Z,95684.5
2022-08-03T05:41:46.384Z,95686.4
2022-08-03T05:42:48.558Z,95681
2022-08-03T05:43:51.026Z,95685.8
2022-08-03T05:44:53.880Z,95684.3
2022-08-03T05:47:01.074Z,95687
2022-08-03T05:48:03.559Z,95682.8
2022-08-03T05:49:06.090Z,95685.8
2022-08-03T05:50:08.070Z,95681.9
2022-08-03T05:51:09.997Z,95683.8
2022-08-03T05:53:17.197Z,95681.2
2022-08-03T05:54:19.398Z,95684.4
2022-08-03T05:55:21.874Z,95684.4
2022-08-03T05:56:24.049Z,95686.2
2022-08-03T05:57:26.027Z,95682.9
2022-08-03T06:00:37.927Z,95683.5
2022-08-03T06:01:40.172Z,95683.4
2022-08-03T06:02:42.525Z,95683.6
2022-08-03T06:03:44.458Z,95681.8
2022-08-03T06:04:46.645Z,95681.5
2022-08-03T06:06:53.891Z,95682.8
2022-08-03T06:07:56.375Z,95685.1
2022-08-03T06:08:58.284Z,95686.3
2022-08-03T06:11:05.468Z,95686
2022-08-03T06:13:14.371Z,95684.6
2022-08-03T06:14:16.865Z,95690.7
2022-08-03T06:15:19.337Z,95694.5
2022-08-03T06:16:21.246Z,95693.7
2022-08-03T06:17:23.556Z,95691.4
2022-08-03T06:18:30.012Z,95692.3
2022-08-03T06:19:31.955Z,95691.7
2022-08-03T06:20:35.319Z,95694.4
2022-08-03T06:25:57.797Z,95694.5
2022-08-03T06:27:00.301Z,95691.3
2022-08-03T06:28:01.952Z,95698.3
2022-08-03T06:30:11.703Z,95700
2022-08-03T06:31:14.178Z,95698.1
2022-08-03T06:32:18.327Z,95698.3
2022-08-03T06:33:22.848Z,95697.9
2022-08-03T06:35:30.037Z,95698.3
2022-08-03T06:36:32.222Z,95701.2
2022-08-03T06:37:34.425Z,95705.5
2022-08-03T06:38:36.909Z,95702.6
2022-08-03T06:39:39.100Z,95703.2
2022-08-03T06:40:41.295Z,95698.4
2022-08-03T06:44:59.272Z,95699.1
2022-08-03T06:46:01.748Z,95697.9
2022-08-03T06:47:03.716Z,95698.4
2022-08-03T06:48:06.203Z,95702.5
2022-08-03T06:49:09.135Z,95702.9
2022-08-03T06:51:16.205Z,95697.1
2022-08-03T06:53:23.505Z,95699.7
2022-08-03T06:54:25.410Z,95706.9
2022-08-03T06:55:27.346Z,95706
2022-08-03T06:56:29.834Z,95702.3
2022-08-03T06:57:32.041Z,95700.4
2022-08-03T06:58:34.247Z,95700.5
2022-08-03T07:00:41.441Z,95700.7
2022-08-03T07:01:43.956Z,95699.7
2022-08-03T07:02:47.663Z,95700.5
2022-08-03T07:03:54.349Z,95702.1
2022-08-03T07:04:56.547Z,95699.3
2022-08-03T07:05:58.901Z,95699.1
2022-08-03T07:07:01.379Z,95696
2022-08-03T07:08:03.603Z,95696.3
2022-08-03T07:09:06.075Z,95696.6
2022-08-03T07:10:07.706Z,95694.7
2022-08-03T07:11:10.254Z,95695.8
2022-08-03T07:12:14.837Z,95695.5
2022-08-03T07:13:17.756Z,95694.7
2022-08-03T07:14:19.734Z,95698.6
2022-08-03T07:16:26.950Z,95698.4
2022-08-03T07:17:28.894Z,95696.1
2022-08-03T07:18:31.709Z,95697.3
2022-08-03T07:19:33.350Z,95692.9
2022-08-03T07:20:35.833Z,95691.5
2022-08-03T07:21:38.335Z,95691.4
2022-08-03T07:22:40.311Z,95693.3
2022-08-03T07:23:42.793Z,95690.6
2022-08-03T07:24:45.271Z,95690
2022-08-03T07:25:47.485Z,95690.9
2022-08-03T07:26:49.952Z,95690.6
2022-08-03T07:27:53.366Z,95686.4
2022-08-03T07:29:00.045Z,95686.9
2022-08-03T07:30:02.275Z,95685.9
2022-08-03T07:31:04.205Z,95686.9
2022-08-03T07:32:06.688Z,95680.4
2022-08-03T07:33:08.860Z,95682.9
2022-08-03T07:34:10.774Z,95677.5
2022-08-03T07:36:17.948Z,95680.3
2022-08-03T07:37:20.143Z,95683.5
2022-08-03T07:38:22.740Z,95679.4
2022-08-03T07:39:24.954Z,95676.9
2022-08-03T07:41:32.420Z,95680.9
2022-08-03T07:42:34.631Z,95679.6
2022-08-03T07:43:37.107Z,95679.3
2022-08-03T07:44:39.581Z,95675.1
2022-08-03T07:45:41.791Z,95676
2022-08-03T07:46:43.988Z,95674.1
2022-08-03T07:48:51.439Z,95681
2022-08-03T07:49:53.913Z,95681.7
2022-08-03T07:50:55.831Z,95679.9
2022-08-03T07:51:57.471Z,95676.8
2022-08-03T07:52:59.663Z,95676.8
2022-08-03T07:54:01.654Z,95678.1
2022-08-03T07:55:04.130Z,95678.4
2022-08-03T07:57:11.607Z,95673.6
2022-08-03T07:58:13.913Z,95671.1
2022-08-03T07:59:16.107Z,95674.4
2022-08-03T08:00:18.335Z,95674.5
2022-08-03T08:01:20.922Z,95674.6
2022-08-03T08:02:23.257Z,95672.2
2022-08-03T08:03:25.178Z,95672.2
2022-08-03T08:04:27.363Z,95672.7
2022-08-03T08:05:29.834Z,95670.4
2022-08-03T08:06:33.532Z,95672.2
2022-08-03T08:07:35.964Z,95671.8
2022-08-03T08:08:38.446Z,95673.5
2022-08-03T08:09:40.660Z,95672.3
2022-08-03T08:11:48.324Z,95669.1
2022-08-03T08:12:50.807Z,95664.7
2022-08-03T08:13:53.014Z,95668.2
2022-08-03T08:14:55.216Z,95668.9
2022-08-03T08:15:57.141Z,95672.5
2022-08-03T08:16:59.344Z,95666.6
2022-08-03T08:18:06.037Z,95668.6
2022-08-03T08:19:08.519Z,95666.7
2022-08-03T08:21:21.964Z,95669.7
2022-08-03T08:24:39.709Z,95670.7
2022-08-03T08:25:42.191Z,95663.5
2022-08-03T08:26:44.391Z,95669.6
2022-08-03T08:28:51.590Z,95669.5
2022-08-03T08:30:59.090Z,95672
2022-08-03T08:32:01.025Z,95669.1
2022-08-03T08:33:02.938Z,95669.2
2022-08-03T08:34:05.930Z,95670.5
2022-08-03T08:35:07.563Z,95669.5
2022-08-03T08:37:14.480Z,95664.5
2022-08-03T08:38:17.163Z,95664
2022-08-03T08:39:20.695Z,95660.7
2022-08-03T08:40:22.644Z,95666.7
2022-08-03T08:42:29.860Z,95665.4
2022-08-03T08:43:32.334Z,95663.8
2022-08-03T08:44:34.241Z,95668.2
2022-08-03T08:45:36.440Z,95665.9
2022-08-03T08:46:38.372Z,95665
2022-08-03T08:48:44.755Z,95656.8
2022-08-03T08:50:51.690Z,95655.3
2022-08-03T08:52:58.596Z,95660.2
2022-08-03T08:54:01.090Z,95658.8
2022-08-03T08:55:03.294Z,95655.1
2022-08-03T08:56:05.796Z,95654.5
2022-08-03T08:59:18.001Z,95658.2
2022-08-03T09:00:20.210Z,95651.3
2022-08-03T09:01:22.761Z,95652
2022-08-03T09:02:24.511Z,95655.7
2022-08-03T09:04:31.712Z,95643.7
2022-08-03T09:06:38.923Z,95650.3
2022-08-03T09:07:40.840Z,95642.8
2022-08-03T09:08:42.773Z,95648.2
2022-08-03T09:10:50.265Z,95647
2022-08-03T09:12:57.452Z,95650.1
2022-08-03T09:13:59.681Z,95649
2022-08-03T09:16:07.172Z,95651
2022-08-03T09:18:14.386Z,95648.7
2022-08-03T09:19:16.333Z,95648.8
2022-08-03T09:20:17.990Z,95648.7
2022-08-03T09:22:24.903Z,95647.7
2022-08-03T09:25:37.475Z,95644.4
2022-08-03T09:26:39.784Z,95642.5
2022-08-03T09:27:42.028Z,95641
2022-08-03T09:29:49.519Z,95643
2022-08-03T09:30:51.445Z,95649.2
2022-08-03T09:31:53.375Z,95640.9
2022-08-03T09:32:55.628Z,95642.9
2022-08-03T09:33:58.131Z,95643
2022-08-03T09:35:00.668Z,95649.8
2022-08-03T09:36:02.323Z,95641.9
2022-08-03T09:37:04.677Z,95645.1
2022-08-03T09:39:11.886Z,95651.1
2022-08-03T09:40:14.464Z,95652.8
2022-08-03T09:41:16.680Z,95650.5
2022-08-03T09:43:25.335Z,95649.4
2022-08-03T09:44:28.005Z,95647.3
2022-08-03T09:45:30.495Z,95653
2022-08-03T09:46:34.307Z,95651.5
2022-08-03T09:47:36.788Z,95654
2022-08-03T09:48:45.213Z,95652.1
2022-08-03T09:49:47.702Z,95654.5
2022-08-03T09:53:00.167Z,95655.1
2022-08-03T09:54:02.670Z,95653.3
2022-08-03T09:57:15.588Z,95654.7
2022-08-03T09:58:18.431Z,95652.8
2022-08-03T09:59:21.265Z,95649.7
2022-08-03T10:00:23.471Z,95651.1
2022-08-03T10:01:27.248Z,95652
2022-08-03T10:02:29.944Z,95645.6
2022-08-03T10:03:32.130Z,95643.7
2022-08-03T10:04:34.139Z,95646.2
2022-08-03T10:05:36.624Z,95649.8
2022-08-03T10:06:38.834Z,95653.1
2022-08-03T10:08:45.738Z,95643.6
2022-08-03T10:09:48.230Z,95644.4
2022-08-03T10:10:51.118Z,95650.3
2022-08-03T10:11:53.607Z,95645.5
2022-08-03T10:12:56.404Z,95641.6
2022-08-03T10:15:03.372Z,95649.3
2022-08-03T10:17:10.665Z,95646.9
2022-08-03T10:18:12.871Z,95641.6
2022-08-03T10:19:15.054Z,95641
2022-08-03T10:20:17.559Z,95643.1
2022-08-03T10:21:19.561Z,95638.3
2022-08-03T10:22:21.505Z,95636
2022-08-03T10:23:23.715Z,95637.8
2022-08-03T10:24:25.657Z,95642.4
2022-08-03T10:26:32.565Z,95637.5
2022-08-03T10:27:34.783Z,95636.9
2022-08-03T10:29:42.698Z,95630
2022-08-03T10:30:44.614Z,95628.5
2022-08-03T10:32:51.809Z,95633.7
2022-08-03T10:33:54.954Z,95631.7
2022-08-03T10:36:02.185Z,95635.9
2022-08-03T10:37:04.388Z,95631.7
2022-08-03T10:38:06.871Z,95629.5
2022-08-03T10:41:19.076Z,95628.9
2022-08-03T10:43:26.272Z,95623.1
2022-08-03T10:44:28.769Z,95624.9
2022-08-03T10:45:31.249Z,95624.5
2022-08-03T10:46:33.455Z,95623
2022-08-03T10:47:35.090Z,95623.3
2022-08-03T10:48:37.031Z,95620.3
2022-08-03T10:49:39.253Z,95621.2
2022-08-03T10:50:42.511Z,95621.7
2022-08-03T10:51:44.436Z,95620.5
2022-08-03T10:54:59.636Z,95614.8
2022-08-03T10:56:06.078Z,95615.7
2022-08-03T11:00:27.629Z,95608.4
2022-08-03T11:02:34.736Z,95612.1
2022-08-03T11:03:36.942Z,95605.5
2022-08-03T11:04:38.889Z,95607.5
2022-08-03T11:05:42.092Z,95609.2
2022-08-03T11:06:44.268Z,95601
2022-08-03T11:08:51.476Z,95606.4
2022-08-03T11:09:53.977Z,95605.3
2022-08-03T11:10:56.179Z,95602.9
2022-08-03T11:11:58.660Z,95606.9
2022-08-03T11:13:00.313Z,95607.9
2022-08-03T11:14:01.961Z,95601.8
2022-08-03T11:15:04.437Z,95606.6
2022-08-03T11:18:16.925Z,95608.6
2022-08-03T11:19:21.421Z,95606.2
2022-08-03T11:20:23.925Z,95605.2
2022-08-03T11:22:31.445Z,95605.3
2022-08-03T11:24:38.945Z,95605.7
2022-08-03T11:26:46.415Z,95603.6
2022-08-03T11:27:48.903Z,95601.3
2022-08-03T11:28:51.374Z,95608.3
2022-08-03T11:29:53.297Z,95600.3
2022-08-03T11:30:55.765Z,95602.3
2022-08-03T11:31:58.027Z,95603.7
2022-08-03T11:33:00.533Z,95598
2022-08-03T11:34:03.021Z,95598.2
2022-08-03T11:35:05.252Z,95598.4
2022-08-03T11:36:07.467Z,95595.1
2022-08-03T11:37:09.948Z,95595.1
2022-08-03T11:38:12.156Z,95597.4
2022-08-03T11:40:19.378Z,95598.7
2022-08-03T11:41:21.605Z,95599.1
2022-08-03T11:42:23.591Z,95596.5
2022-08-03T11:44:30.807Z,95597.2
2022-08-03T11:45:33.047Z,95593.7
2022-08-03T11:46:35.251Z,95593.5
2022-08-03T11:48:42.738Z,95595.7
2022-08-03T11:49:45.131Z,95600.9
2022-08-03T11:50:47.611Z,95597.1
2022-08-03T11:51:50.098Z,95599.8
2022-08-03T11:52:52.574Z,95600.9
2022-08-03T11:53:55.067Z,95594.6
2022-08-03T11:54:58.338Z,95595.2
2022-08-03T11:56:00.822Z,95597
2022-08-03T11:57:02.727Z,95595.3
2022-08-03T12:00:15.204Z,95593.5
2022-08-03T12:02:22.106Z,95591.2
2022-08-03T12:03:24.750Z,95587.6
2022-08-03T12:04:27.170Z,95587.1
2022-08-03T12:05:30.400Z,95584.7
2022-08-03T12:06:34.825Z,95582
2022-08-03T12:08:42.321Z,95582.9
2022-08-03T12:09:44.827Z,95579.5
2022-08-03T12:10:46.731Z,95582
2022-08-03T12:12:54.111Z,95577.9
2022-08-03T12:15:01.580Z,95578.3
2022-08-03T12:16:03.528Z,95577.9
2022-08-03T12:17:05.437Z,95572.5
2022-08-03T12:19:12.089Z,95569.7
2022-08-03T12:20:14.298Z,95574.1
2022-08-03T12:21:16.776Z,95570.3
2022-08-03T12:22:18.444Z,95570.5
2022-08-03T12:23:20.915Z,95568.1
2022-08-03T12:24:23.128Z,95569
2022-08-03T12:26:30.406Z,95563.6
2022-08-03T12:27:32.912Z,95562.3
2022-08-03T12:29:40.388Z,95563.8
2022-08-03T12:30:42.574Z,95558.5
2022-08-03T12:31:44.227Z,95560.4
2022-08-03T12:32:46.710Z,95559.8
2022-08-03T12:33:48.366Z,95561.5
2022-08-03T12:34:50.845Z,95561.8
2022-08-03T12:35:55.544Z,95562.1
2022-08-03T12:36:57.757Z,95566.3
2022-08-03T12:38:00.229Z,95563.3
2022-08-03T12:39:02.441Z,95563.3
2022-08-03T12:41:09.698Z,95560.9
2022-08-03T12:42:11.926Z,95559.4
2022-08-03T12:43:14.432Z,95556.5
2022-08-03T12:44:16.904Z,95560.3
2022-08-03T12:45:18.822Z,95558.7
2022-08-03T12:46:21.028Z,95556.1
2022-08-03T12:47:23.231Z,95556.7
2022-08-03T12:49:31.904Z,95555
2022-08-03T12:50:34.159Z,95556
2022-08-03T12:51:35.788Z,95555.5
2022-08-03T12:52:38.318Z,95554.5
2022-08-03T12:53:40.491Z,95553.9
2022-08-03T12:54:42.151Z,95549.8
2022-08-03T12:56:49.355Z,95554.7
2022-08-03T12:57:51.562Z,95555.8
2022-08-03T12:58:54.041Z,95546.8
2022-08-03T12:59:57.152Z,95550.7
2022-08-03T13:00:59.089Z,95550.1
2022-08-03T13:05:17.482Z,95547
2022-08-03T13:06:19.695Z,95549.2
2022-08-03T13:07:23.835Z,95550
2022-08-03T13:08:26.190Z,95550.2
2022-08-03T13:09:28.668Z,95548.9
2022-08-03T13:10:30.846Z,95550.7
2022-08-03T13:12:38.371Z,95550.2
2022-08-03T13:13:40.859Z,95551.2
2022-08-03T13:14:43.042Z,95549.7
2022-08-03T13:16:50.487Z,95544.1
2022-08-03T13:17:52.426Z,95546.7
2022-08-03T13:18:54.366Z,95547.7
2022-08-03T13:19:57.095Z,95551.3
2022-08-03T13:20:59.572Z,95545.5
2022-08-03T13:24:11.812Z,95552.7
2022-08-03T13:25:13.800Z,95547.9
2022-08-03T13:26:15.999Z,95547.6
2022-08-03T13:28:23.272Z,95546.4
2022-08-03T13:29:25.487Z,95545.4
2022-08-03T13:31:32.964Z,95543.3
2022-08-03T13:32:35.453Z,95545.6
2022-08-03T13:33:37.627Z,95540
2022-08-03T13:34:40.113Z,95542.9
2022-08-03T13:35:42.323Z,95541.9
2022-08-03T13:37:50.397Z,95542.6
2022-08-03T13:38:52.501Z,95534.7
2022-08-03T13:41:00.164Z,95539
2022-08-03T13:42:06.561Z,95536.1
2022-08-03T13:43:08.499Z,95536.7
2022-08-03T13:45:15.706Z,95535.6
2022-08-03T13:46:17.928Z,95534.1
2022-08-03T13:47:21.935Z,95528.3
2022-08-03T13:49:30.106Z,95528.1
2022-08-03T13:50:32.353Z,95528.2
2022-08-03T13:51:34.820Z,95530.2
2022-08-03T13:52:37.126Z,95527.3
2022-08-03T13:53:39.302Z,95523.8
2022-08-03T13:55:46.528Z,95525.8
2022-08-03T13:56:49.007Z,95522.6
2022-08-03T13:58:56.228Z,95522.6
2022-08-03T13:59:58.727Z,95522.8
2022-08-03T14:01:00.947Z,95514.9
2022-08-03T14:02:03.180Z,95517.4
2022-08-03T14:05:15.528Z,95516.2
2022-08-03T14:06:17.737Z,95513
2022-08-03T14:07:21.036Z,95512.8
2022-08-03T14:08:23.812Z,95509.3
2022-08-03T14:09:26.286Z,95508.8
2022-08-03T14:10:28.523Z,95503.6
2022-08-03T14:12:35.713Z,95507.8
2022-08-03T14:13:38.223Z,95506.5
2022-08-03T14:14:40.694Z,95505.9
2022-08-03T14:17:52.894Z,95503.8
2022-08-03T14:20:02.419Z,95506.4
2022-08-03T14:21:08.697Z,95504.7
2022-08-03T14:22:11.176Z,95504.2
2022-08-03T14:23:15.291Z,95503.7
2022-08-03T14:24:17.768Z,95504.2
2022-08-03T14:25:20.135Z,95500.9
2022-08-03T14:26:22.614Z,95501.4
2022-08-03T14:27:24.928Z,95502.4
2022-08-03T14:28:27.324Z,95501.3
2022-08-03T14:29:29.562Z,95500.5
2022-08-03T14:30:32.048Z,95499.6
2022-08-03T14:32:39.515Z,95502.3
2022-08-03T14:33:41.997Z,95504
2022-08-03T14:34:44.210Z,95502.6
2022-08-03T14:35:46.706Z,95502.9
2022-08-03T14:36:48.999Z,95505.8
2022-08-03T14:37:50.911Z,95501.5
2022-08-03T14:38:55.326Z,95498.8
2022-08-03T14:40:02.776Z,95502.3
2022-08-03T14:41:04.967Z,95502.6
2022-08-03T14:42:07.444Z,95503.3
2022-08-03T14:43:09.388Z,95501.3
2022-08-03T14:44:11.869Z,95496.7
2022-08-03T14:46:19.068Z,95498.3
2022-08-03T14:47:21.970Z,95496.5
2022-08-03T14:52:44.684Z,95493.4
2022-08-03T14:53:47.188Z,95492.2
2022-08-03T14:54:49.403Z,95488
2022-08-03T14:55:53.243Z,95488.3
2022-08-03T14:56:55.542Z,95487.1
2022-08-03T14:58:00.044Z,95489.1
2022-08-03T14:59:02.524Z,95490.4
2022-08-03T15:00:04.454Z,95489
2022-08-03T15:03:18.535Z,95489.9
2022-08-03T15:04:20.836Z,95488.1
2022-08-03T15:05:23.316Z,95487.1
2022-08-03T15:06:25.527Z,95491.2
2022-08-03T15:07:28.009Z,95490.5
2022-08-03T15:08:30.505Z,95486.1
2022-08-03T15:09:32.759Z,95485.9
2022-08-03T15:11:39.979Z,95477.4
2022-08-03T15:12:42.491Z,95478.4
2022-08-03T15:13:44.992Z,95472.1
2022-08-03T15:14:46.947Z,95479.1
2022-08-03T15:15:49.223Z,95476.8
2022-08-03T15:16:51.757Z,95473.4
2022-08-03T15:18:59.258Z,95473.2
2022-08-03T15:23:20.229Z,95473.7
2022-08-03T15:24:22.454Z,95468.6
2022-08-03T15:28:40.906Z,95470.7
2022-08-03T15:30:48.125Z,95474.9
2022-08-03T15:31:50.618Z,95478.3
2022-08-03T15:32:53.087Z,95477.1
2022-08-03T15:33:55.297Z,95473.1
2022-08-03T15:34:57.493Z,95475.8
2022-08-03T15:35:59.997Z,95479.4
2022-08-03T15:37:02.473Z,95478.8
2022-08-03T15:38:11.241Z,95477.7
2022-08-03T15:39:13.924Z,95473
2022-08-03T15:40:16.549Z,95475.9
2022-08-03T15:41:19.057Z,95478.1
2022-08-03T15:43:26.592Z,95474.3
2022-08-03T15:44:28.539Z,95471.6
2022-08-03T15:46:35.437Z,95468.5
2022-08-03T15:47:37.640Z,95469.4
2022-08-03T15:48:39.317Z,95470.6
2022-08-03T15:49:41.520Z,95471.8
2022-08-03T15:50:44.925Z,95469.4
2022-08-03T15:51:47.423Z,95474
2022-08-03T15:52:49.639Z,95472.2
2022-08-03T15:53:52.127Z,95466
2022-08-03T15:54:53.772Z,95464.8
2022-08-03T15:55:55.682Z,95468.5
2022-08-03T15:56:57.618Z,95467.7